sensor_id;sensor_type;location;lat;lon;timestamp;pressure;altitude;pressure_sealevel;temperature;humidity
55022;BME280;68328;35.990;-86.756;2023-04-06T00:00:32;99303.96;;;22.80;53.63
55022;BME280;68328;35.990;-86.756;2023-04-06T00:02:57;99278.59;;;22.66;54.54
55022;BME280;68328;35.990;-86.756;2023-04-06T00:05:23;99248.06;;;22.79;55.92
55022;BME280;68328;35.990;-86.756;2023-04-06T00:07:50;99243.14;;;22.79;55.33
55022;BME280;68328;35.990;-86.756;2023-04-06T00:10:13;99252.43;;;22.96;54.12
55022;BME280;68328;35.990;-86.756;2023-04-06T00:12:39;99273.39;;;22.47;53.93
55022;BME280;68328;35.990;-86.756;2023-04-06T00:15:05;99287.43;;;22.58;53.75
55022;BME280;68328;35.990;-86.756;2023-04-06T00:17:30;99301.02;;;22.81;54.23
55022;BME280;68328;35.990;-86.756;2023-04-06T00:19:54;99311.34;;;22.68;54.45
55022;BME280;68328;35.990;-86.756;2023-04-06T00:22:19;99302.55;;;22.61;54.07
55022;BME280;68328;35.990;-86.756;2023-04-06T00:24:45;99294.84;;;22.60;54.41
55022;BME280;68328;35.990;-86.756;2023-04-06T00:27:10;99302.21;;;21.81;54.81
55022;BME280;68328;35.990;-86.756;2023-04-06T00:29:35;99284.64;;;22.43;54.32
55022;BME280;68328;35.990;-86.756;2023-04-06T00:32:01;99291.29;;;22.39;54.62
55022;BME280;68328;35.990;-86.756;2023-04-06T00:34:26;99294.18;;;22.48;53.94
55022;BME280;68328;35.990;-86.756;2023-04-06T00:36:51;99306.46;;;22.37;53.56
55022;BME280;68328;35.990;-86.756;2023-04-06T00:39:17;99330.13;;;22.24;54.47
55022;BME280;68328;35.990;-86.756;2023-04-06T00:41:49;99347.38;;;21.85;54.42
55022;BME280;68328;35.990;-86.756;2023-04-06T00:44:09;99359.53;;;22.30;53.82
55022;BME280;68328;35.990;-86.756;2023-04-06T00:46:33;99369.35;;;22.62;54.09
55022;BME280;68328;35.990;-86.756;2023-04-06T00:48:59;99388.18;;;22.70;53.69
55022;BME280;68328;35.990;-86.756;2023-04-06T00:51:23;99408.74;;;22.58;53.42
55022;BME280;68328;35.990;-86.756;2023-04-06T00:53:49;99423.05;;;22.46;53.61
55022;BME280;68328;35.990;-86.756;2023-04-06T00:56:14;99429.30;;;22.36;53.30
55022;BME280;68328;35.990;-86.756;2023-04-06T00:58:39;99433.91;;;22.58;53.49
55022;BME280;68328;35.990;-86.756;2023-04-06T01:01:05;99438.25;;;22.68;53.52
55022;BME280;68328;35.990;-86.756;2023-04-06T01:03:30;99456.43;;;22.20;53.85
55022;BME280;68328;35.990;-86.756;2023-04-06T01:05:55;99468.45;;;22.63;52.77
55022;BME280;68328;35.990;-86.756;2023-04-06T01:08:20;99464.77;;;22.77;54.73
55022;BME280;68328;35.990;-86.756;2023-04-06T01:10:47;99478.81;;;22.35;51.73
55022;BME280;68328;35.990;-86.756;2023-04-06T01:13:12;99461.47;;;22.38;53.49
55022;BME280;68328;35.990;-86.756;2023-04-06T01:15:37;99439.33;;;22.34;53.68
55022;BME280;68328;35.990;-86.756;2023-04-06T01:18:02;99455.28;;;22.39;54.71
55022;BME280;68328;35.990;-86.756;2023-04-06T01:20:27;99468.92;;;22.58;53.29
55022;BME280;68328;35.990;-86.756;2023-04-06T01:22:52;99479.61;;;22.40;53.71
55022;BME280;68328;35.990;-86.756;2023-04-06T01:25:17;99494.55;;;22.60;53.15
55022;BME280;68328;35.990;-86.756;2023-04-06T01:27:43;99488.08;;;22.49;53.97
55022;BME280;68328;35.990;-86.756;2023-04-06T01:30:11;99473.55;;;22.48;55.04
55022;BME280;68328;35.990;-86.756;2023-04-06T01:32:34;99458.48;;;22.42;53.90
55022;BME280;68328;35.990;-86.756;2023-04-06T01:35:00;99426.48;;;22.28;54.17
55022;BME280;68328;35.990;-86.756;2023-04-06T01:37:26;99417.50;;;22.10;54.71
55022;BME280;68328;35.990;-86.756;2023-04-06T01:39:51;99390.21;;;22.29;54.83
55022;BME280;68328;35.990;-86.756;2023-04-06T01:42:16;99393.56;;;22.28;54.90
55022;BME280;68328;35.990;-86.756;2023-04-06T01:44:42;99397.94;;;22.37;55.05
55022;BME280;68328;35.990;-86.756;2023-04-06T01:47:07;99407.64;;;22.49;54.33
55022;BME280;68328;35.990;-86.756;2023-04-06T01:49:32;99414.65;;;22.47;53.42
55022;BME280;68328;35.990;-86.756;2023-04-06T01:51:57;99414.21;;;22.58;53.89
55022;BME280;68328;35.990;-86.756;2023-04-06T01:54:23;99409.23;;;22.61;53.68
55022;BME280;68328;35.990;-86.756;2023-04-06T01:56:49;99398.53;;;22.52;53.43
55022;BME280;68328;35.990;-86.756;2023-04-06T01:59:13;99402.56;;;22.41;53.39
55022;BME280;68328;35.990;-86.756;2023-04-06T02:01:40;99399.86;;;22.23;53.65
55022;BME280;68328;35.990;-86.756;2023-04-06T02:04:04;99412.44;;;21.94;54.04
55022;BME280;68328;35.990;-86.756;2023-04-06T02:06:29;99412.70;;;22.32;53.06
55022;BME280;68328;35.990;-86.756;2023-04-06T02:08:54;99416.23;;;22.40;53.21
55022;BME280;68328;35.990;-86.756;2023-04-06T02:11:19;99408.74;;;22.50;53.93
55022;BME280;68328;35.990;-86.756;2023-04-06T02:13:45;99395.84;;;22.24;53.75
55022;BME280;68328;35.990;-86.756;2023-04-06T02:16:10;99381.77;;;22.36;53.11
55022;BME280;68328;35.990;-86.756;2023-04-06T02:18:35;99378.49;;;22.32;53.18
55022;BME280;68328;35.990;-86.756;2023-04-06T02:21:01;99375.05;;;22.46;53.08
55022;BME280;68328;35.990;-86.756;2023-04-06T02:23:26;99367.75;;;22.49;52.88
55022;BME280;68328;35.990;-86.756;2023-04-06T02:25:52;99372.61;;;22.36;52.55
55022;BME280;68328;35.990;-86.756;2023-04-06T02:28:17;99380.37;;;22.32;53.38
55022;BME280;68328;35.990;-86.756;2023-04-06T02:30:42;99386.78;;;22.33;53.20
55022;BME280;68328;35.990;-86.756;2023-04-06T02:33:07;99393.44;;;22.29;53.39
55022;BME280;68328;35.990;-86.756;2023-04-06T02:35:33;99402.08;;;22.42;53.34
55022;BME280;68328;35.990;-86.756;2023-04-06T02:37:59;99401.67;;;22.31;54.07
55022;BME280;68328;35.990;-86.756;2023-04-06T02:40:25;99403.64;;;22.11;53.58
55022;BME280;68328;35.990;-86.756;2023-04-06T02:42:49;99402.54;;;22.06;53.74
55022;BME280;68328;35.990;-86.756;2023-04-06T02:45:14;99411.09;;;22.19;53.36
55022;BME280;68328;35.990;-86.756;2023-04-06T02:47:39;99403.88;;;22.66;53.49
55022;BME280;68328;35.990;-86.756;2023-04-06T02:50:05;99403.63;;;22.57;52.70
55022;BME280;68328;35.990;-86.756;2023-04-06T02:52:30;99397.63;;;22.58;52.52
55022;BME280;68328;35.990;-86.756;2023-04-06T02:54:56;99390.35;;;22.51;52.04
55022;BME280;68328;35.990;-86.756;2023-04-06T02:57:20;99381.57;;;22.64;52.81
55022;BME280;68328;35.990;-86.756;2023-04-06T02:59:46;99379.65;;;22.23;53.62
55022;BME280;68328;35.990;-86.756;2023-04-06T03:02:11;99410.67;;;21.92;53.35
55022;BME280;68328;35.990;-86.756;2023-04-06T03:04:36;99411.62;;;22.14;53.76
55022;BME280;68328;35.990;-86.756;2023-04-06T03:07:02;99417.47;;;22.52;52.75
55022;BME280;68328;35.990;-86.756;2023-04-06T03:09:30;99407.76;;;22.58;53.31
55022;BME280;68328;35.990;-86.756;2023-04-06T03:11:54;99403.15;;;22.59;52.59
55022;BME280;68328;35.990;-86.756;2023-04-06T03:14:18;99391.87;;;22.23;53.09
55022;BME280;68328;35.990;-86.756;2023-04-06T03:16:43;99384.52;;;22.49;53.21
55022;BME280;68328;35.990;-86.756;2023-04-06T03:19:08;99377.87;;;22.44;52.87
55022;BME280;68328;35.990;-86.756;2023-04-06T03:21:35;99368.07;;;22.73;52.19
55022;BME280;68328;35.990;-86.756;2023-04-06T03:23:59;99352.37;;;22.32;53.39
55022;BME280;68328;35.990;-86.756;2023-04-06T03:26:25;99354.26;;;22.80;52.38
55022;BME280;68328;35.990;-86.756;2023-04-06T03:28:50;99354.12;;;22.74;52.54
55022;BME280;68328;35.990;-86.756;2023-04-06T03:31:15;99350.00;;;22.68;53.05
55022;BME280;68328;35.990;-86.756;2023-04-06T03:33:40;99345.43;;;22.50;52.77
55022;BME280;68328;35.990;-86.756;2023-04-06T03:36:07;99348.18;;;22.27;52.76
55022;BME280;68328;35.990;-86.756;2023-04-06T03:38:35;99368.59;;;22.31;53.35
55022;BME280;68328;35.990;-86.756;2023-04-06T03:40:58;99366.60;;;22.27;52.76
55022;BME280;68328;35.990;-86.756;2023-04-06T03:43:22;99356.67;;;22.34;53.37
55022;BME280;68328;35.990;-86.756;2023-04-06T03:45:47;99359.53;;;22.01;53.10
55022;BME280;68328;35.990;-86.756;2023-04-06T03:48:12;99359.74;;;22.35;54.14
55022;BME280;68328;35.990;-86.756;2023-04-06T03:50:39;99360.74;;;22.29;52.82
55022;BME280;68328;35.990;-86.756;2023-04-06T03:53:04;99360.47;;;21.84;53.34
55022;BME280;68328;35.990;-86.756;2023-04-06T03:55:29;99340.70;;;22.06;54.49
55022;BME280;68328;35.990;-86.756;2023-04-06T03:57:54;99368.02;;;21.55;54.32
55022;BME280;68328;35.990;-86.756;2023-04-06T04:00:21;99336.20;;;21.37;55.78
55022;BME280;68328;35.990;-86.756;2023-04-06T04:02:46;99335.16;;;21.52;54.94
55022;BME280;68328;35.990;-86.756;2023-04-06T04:05:12;99342.55;;;21.74;54.30
55022;BME280;68328;35.990;-86.756;2023-04-06T04:07:36;99360.32;;;22.03;54.25
55022;BME280;68328;35.990;-86.756;2023-04-06T04:10:02;99367.71;;;21.92;53.53
55022;BME280;68328;35.990;-86.756;2023-04-06T04:12:27;99353.68;;;22.07;54.13
55022;BME280;68328;35.990;-86.756;2023-04-06T04:14:52;99356.25;;;22.13;54.38
55022;BME280;68328;35.990;-86.756;2023-04-06T04:17:17;99354.90;;;21.80;53.41
55022;BME280;68328;35.990;-86.756;2023-04-06T04:19:42;99356.85;;;22.17;53.95
55022;BME280;68328;35.990;-86.756;2023-04-06T04:22:08;99360.72;;;22.07;54.25
55022;BME280;68328;35.990;-86.756;2023-04-06T04:24:33;99359.83;;;22.18;53.20
55022;BME280;68328;35.990;-86.756;2023-04-06T04:27:00;99360.70;;;22.31;52.98
55022;BME280;68328;35.990;-86.756;2023-04-06T04:29:23;99385.61;;;22.28;52.78
55022;BME280;68328;35.990;-86.756;2023-04-06T04:31:49;99395.42;;;22.24;52.73
55022;BME280;68328;35.990;-86.756;2023-04-06T04:34:15;99390.14;;;22.24;53.39
55022;BME280;68328;35.990;-86.756;2023-04-06T04:36:39;99398.99;;;22.38;53.29
55022;BME280;68328;35.990;-86.756;2023-04-06T04:39:04;99400.04;;;22.47;53.48
55022;BME280;68328;35.990;-86.756;2023-04-06T04:41:30;99399.79;;;22.40;52.90
55022;BME280;68328;35.990;-86.756;2023-04-06T04:43:55;99392.32;;;22.32;52.81
55022;BME280;68328;35.990;-86.756;2023-04-06T04:46:20;99400.12;;;22.24;53.04
55022;BME280;68328;35.990;-86.756;2023-04-06T04:48:46;99402.06;;;21.92;53.39
55022;BME280;68328;35.990;-86.756;2023-04-06T04:51:11;99403.05;;;21.92;53.67
55022;BME280;68328;35.990;-86.756;2023-04-06T04:53:37;99411.39;;;22.35;52.81
55022;BME280;68328;35.990;-86.756;2023-04-06T04:56:02;99397.33;;;22.39;52.65
55022;BME280;68328;35.990;-86.756;2023-04-06T04:58:26;99379.43;;;22.50;53.37
55022;BME280;68328;35.990;-86.756;2023-04-06T05:00:52;99368.97;;;22.03;53.58
55022;BME280;68328;35.990;-86.756;2023-04-06T05:03:20;99365.11;;;22.08;53.68
55022;BME280;68328;35.990;-86.756;2023-04-06T05:05:43;99383.63;;;22.17;52.74
55022;BME280;68328;35.990;-86.756;2023-04-06T05:08:08;99377.14;;;22.20;53.46
55022;BME280;68328;35.990;-86.756;2023-04-06T05:10:35;99370.33;;;22.10;53.20
55022;BME280;68328;35.990;-86.756;2023-04-06T05:12:58;99366.78;;;22.18;53.56
55022;BME280;68328;35.990;-86.756;2023-04-06T05:15:24;99376.71;;;22.16;53.11
55022;BME280;68328;35.990;-86.756;2023-04-06T05:17:51;99369.06;;;22.30;53.44
55022;BME280;68328;35.990;-86.756;2023-04-06T05:20:15;99371.32;;;22.33;52.92
55022;BME280;68328;35.990;-86.756;2023-04-06T05:22:41;99370.88;;;22.48;52.96
55022;BME280;68328;35.990;-86.756;2023-04-06T05:25:06;99368.87;;;22.45;52.69
55022;BME280;68328;35.990;-86.756;2023-04-06T05:27:32;99370.92;;;22.30;52.54
55022;BME280;68328;35.990;-86.756;2023-04-06T05:29:56;99369.52;;;22.61;52.73
55022;BME280;68328;35.990;-86.756;2023-04-06T05:32:22;99374.09;;;22.50;52.38
55022;BME280;68328;35.990;-86.756;2023-04-06T05:34:48;99384.47;;;22.29;52.84
55022;BME280;68328;35.990;-86.756;2023-04-06T05:37:12;99388.28;;;22.21;53.00
55022;BME280;68328;35.990;-86.756;2023-04-06T05:39:38;99379.99;;;22.28;53.33
55022;BME280;68328;35.990;-86.756;2023-04-06T05:42:05;99356.80;;;22.27;53.46
55022;BME280;68328;35.990;-86.756;2023-04-06T05:44:29;99335.50;;;22.20;54.28
55022;BME280;68328;35.990;-86.756;2023-04-06T05:46:55;99339.54;;;22.10;54.52
55022;BME280;68328;35.990;-86.756;2023-04-06T05:49:19;99348.07;;;21.84;54.35
55022;BME280;68328;35.990;-86.756;2023-04-06T05:51:44;99350.27;;;21.83;53.79
55022;BME280;68328;35.990;-86.756;2023-04-06T05:54:10;99340.11;;;21.93;54.65
55022;BME280;68328;35.990;-86.756;2023-04-06T05:56:35;99346.75;;;22.02;54.93
55022;BME280;68328;35.990;-86.756;2023-04-06T05:59:01;99357.28;;;22.06;53.95
55022;BME280;68328;35.990;-86.756;2023-04-06T06:01:26;99370.62;;;22.06;53.65
55022;BME280;68328;35.990;-86.756;2023-04-06T06:03:51;99387.92;;;22.13;53.51
55022;BME280;68328;35.990;-86.756;2023-04-06T06:06:17;99393.77;;;22.16;53.55
55022;BME280;68328;35.990;-86.756;2023-04-06T06:08:42;99403.02;;;22.23;54.44
55022;BME280;68328;35.990;-86.756;2023-04-06T06:11:07;99396.45;;;21.84;55.56
55022;BME280;68328;35.990;-86.756;2023-04-06T06:13:33;99390.53;;;21.86;55.92
55022;BME280;68328;35.990;-86.756;2023-04-06T06:15:58;99379.75;;;21.94;55.80
55022;BME280;68328;35.990;-86.756;2023-04-06T06:18:24;99426.63;;;21.05;55.84
55022;BME280;68328;35.990;-86.756;2023-04-06T06:20:49;99452.28;;;20.30;58.78
55022;BME280;68328;35.990;-86.756;2023-04-06T06:23:14;99474.29;;;19.98;59.08
55022;BME280;68328;35.990;-86.756;2023-04-06T06:25:39;99468.84;;;19.86;59.88
55022;BME280;68328;35.990;-86.756;2023-04-06T06:28:05;99447.48;;;21.01;57.81
55022;BME280;68328;35.990;-86.756;2023-04-06T06:30:31;99438.86;;;21.42;57.09
55022;BME280;68328;35.990;-86.756;2023-04-06T06:32:56;99439.68;;;21.68;56.24
55022;BME280;68328;35.990;-86.756;2023-04-06T06:35:24;99420.79;;;21.83;56.48
55022;BME280;68328;35.990;-86.756;2023-04-06T06:37:47;99426.45;;;22.22;56.24
55022;BME280;68328;35.990;-86.756;2023-04-06T06:40:12;99405.61;;;21.64;55.19
55022;BME280;68328;35.990;-86.756;2023-04-06T06:42:37;99388.44;;;21.71;56.40
55022;BME280;68328;35.990;-86.756;2023-04-06T06:45:03;99390.88;;;21.52;55.95
55022;BME280;68328;35.990;-86.756;2023-04-06T06:47:28;99374.75;;;21.62;55.84
55022;BME280;68328;35.990;-86.756;2023-04-06T06:49:54;99356.17;;;21.72;55.98
55022;BME280;68328;35.990;-86.756;2023-04-06T06:52:21;99342.31;;;21.68;55.46
55022;BME280;68328;35.990;-86.756;2023-04-06T06:54:46;99330.98;;;21.98;55.51
55022;BME280;68328;35.990;-86.756;2023-04-06T06:57:12;99325.97;;;21.78;56.43
55022;BME280;68328;35.990;-86.756;2023-04-06T06:59:35;99327.55;;;21.55;56.26
55022;BME280;68328;35.990;-86.756;2023-04-06T07:02:01;99327.54;;;21.72;55.90
55022;BME280;68328;35.990;-86.756;2023-04-06T07:04:28;99328.30;;;22.31;55.34
55022;BME280;68328;35.990;-86.756;2023-04-06T07:06:52;99328.54;;;21.87;54.83
55022;BME280;68328;35.990;-86.756;2023-04-06T07:09:17;99340.14;;;21.75;55.94
55022;BME280;68328;35.990;-86.756;2023-04-06T07:11:43;99354.22;;;22.21;54.54
55022;BME280;68328;35.990;-86.756;2023-04-06T07:14:07;99373.23;;;21.67;54.62
55022;BME280;68328;35.990;-86.756;2023-04-06T07:16:33;99378.09;;;21.72;55.66
55022;BME280;68328;35.990;-86.756;2023-04-06T07:18:59;99395.51;;;22.02;55.80
55022;BME280;68328;35.990;-86.756;2023-04-06T07:21:24;99411.31;;;21.24;56.22
55022;BME280;68328;35.990;-86.756;2023-04-06T07:23:50;99402.49;;;21.75;55.04
55022;BME280;68328;35.990;-86.756;2023-04-06T07:26:15;99398.43;;;21.89;55.73
55022;BME280;68328;35.990;-86.756;2023-04-06T07:28:41;99401.07;;;21.56;55.34
55022;BME280;68328;35.990;-86.756;2023-04-06T07:31:06;99396.01;;;21.54;54.63
55022;BME280;68328;35.990;-86.756;2023-04-06T07:33:31;99389.07;;;21.82;55.57
55022;BME280;68328;35.990;-86.756;2023-04-06T07:35:57;99389.91;;;21.67;55.48
55022;BME280;68328;35.990;-86.756;2023-04-06T07:38:22;99392.19;;;21.73;54.95
55022;BME280;68328;35.990;-86.756;2023-04-06T07:40:48;99407.22;;;21.65;54.61
55022;BME280;68328;35.990;-86.756;2023-04-06T07:43:13;99395.23;;;21.72;54.44
55022;BME280;68328;35.990;-86.756;2023-04-06T07:45:39;99386.35;;;21.68;55.44
55022;BME280;68328;35.990;-86.756;2023-04-06T07:48:05;99384.73;;;22.05;56.32
55022;BME280;68328;35.990;-86.756;2023-04-06T07:50:30;99392.35;;;22.00;55.19
55022;BME280;68328;35.990;-86.756;2023-04-06T07:52:56;99396.29;;;21.68;55.58
55022;BME280;68328;35.990;-86.756;2023-04-06T07:55:21;99394.35;;;21.74;55.19
55022;BME280;68328;35.990;-86.756;2023-04-06T07:57:45;99402.70;;;21.75;55.00
55022;BME280;68328;35.990;-86.756;2023-04-06T08:00:12;99403.55;;;21.85;55.12
55022;BME280;68328;35.990;-86.756;2023-04-06T08:02:36;99416.71;;;21.78;54.53
55022;BME280;68328;35.990;-86.756;2023-04-06T08:05:01;99417.19;;;21.58;55.67
55022;BME280;68328;35.990;-86.756;2023-04-06T08:07:27;99408.13;;;21.81;56.31
55022;BME280;68328;35.990;-86.756;2023-04-06T08:09:53;99421.74;;;21.59;57.22
55022;BME280;68328;35.990;-86.756;2023-04-06T08:12:18;99430.60;;;21.58;56.74
55022;BME280;68328;35.990;-86.756;2023-04-06T08:14:42;99425.52;;;21.75;57.12
55022;BME280;68328;35.990;-86.756;2023-04-06T08:17:08;99415.49;;;21.65;56.53
55022;BME280;68328;35.990;-86.756;2023-04-06T08:19:33;99425.07;;;21.52;57.53
55022;BME280;68328;35.990;-86.756;2023-04-06T08:21:58;99431.57;;;21.36;57.60
55022;BME280;68328;35.990;-86.756;2023-04-06T08:24:24;99423.58;;;21.65;58.31
55022;BME280;68328;35.990;-86.756;2023-04-06T08:26:49;99426.96;;;21.12;58.16
55022;BME280;68328;35.990;-86.756;2023-04-06T08:29:14;99439.00;;;21.45;57.75
55022;BME280;68328;35.990;-86.756;2023-04-06T08:31:40;99453.64;;;21.28;57.82
55022;BME280;68328;35.990;-86.756;2023-04-06T08:34:05;99473.93;;;21.56;57.57
55022;BME280;68328;35.990;-86.756;2023-04-06T08:36:31;99482.75;;;21.30;57.84
55022;BME280;68328;35.990;-86.756;2023-04-06T08:38:56;99474.59;;;21.39;57.66
55022;BME280;68328;35.990;-86.756;2023-04-06T08:41:21;99483.89;;;20.65;58.78
55022;BME280;68328;35.990;-86.756;2023-04-06T08:43:49;99499.05;;;20.24;59.55
55022;BME280;68328;35.990;-86.756;2023-04-06T08:46:11;99505.59;;;20.05;60.28
55022;BME280;68328;35.990;-86.756;2023-04-06T08:48:37;99516.50;;;19.67;62.33
55022;BME280;68328;35.990;-86.756;2023-04-06T08:51:02;99519.88;;;20.19;61.08
55022;BME280;68328;35.990;-86.756;2023-04-06T08:53:27;99528.57;;;20.92;60.17
55022;BME280;68328;35.990;-86.756;2023-04-06T08:55:52;99534.97;;;20.41;61.01
55022;BME280;68328;35.990;-86.756;2023-04-06T08:58:18;99546.99;;;20.72;60.19
55022;BME280;68328;35.990;-86.756;2023-04-06T09:00:43;99561.11;;;20.22;61.71
55022;BME280;68328;35.990;-86.756;2023-04-06T09:03:08;99569.28;;;20.24;61.46
55022;BME280;68328;35.990;-86.756;2023-04-06T09:05:33;99560.46;;;19.44;62.02
55022;BME280;68328;35.990;-86.756;2023-04-06T09:07:59;99557.90;;;20.85;59.51
55022;BME280;68328;35.990;-86.756;2023-04-06T09:10:25;99552.80;;;21.21;58.62
55022;BME280;68328;35.990;-86.756;2023-04-06T09:12:49;99555.55;;;20.52;59.56
55022;BME280;68328;35.990;-86.756;2023-04-06T09:15:20;99553.53;;;21.45;58.10
55022;BME280;68328;35.990;-86.756;2023-04-06T09:17:45;99549.84;;;21.49;58.41
55022;BME280;68328;35.990;-86.756;2023-04-06T09:20:08;99541.56;;;21.19;58.78
55022;BME280;68328;35.990;-86.756;2023-04-06T09:22:35;99546.15;;;21.61;58.47
55022;BME280;68328;35.990;-86.756;2023-04-06T09:24:55;99556.41;;;21.70;57.09
55022;BME280;68328;35.990;-86.756;2023-04-06T09:27:30;99568.26;;;21.58;57.39
55022;BME280;68328;35.990;-86.756;2023-04-06T09:29:47;99573.03;;;21.48;56.96
55022;BME280;68328;35.990;-86.756;2023-04-06T09:32:12;99568.72;;;21.87;56.48
55022;BME280;68328;35.990;-86.756;2023-04-06T09:34:38;99581.75;;;21.72;56.80
55022;BME280;68328;35.990;-86.756;2023-04-06T09:37:13;99595.18;;;21.70;56.80
55022;BME280;68328;35.990;-86.756;2023-04-06T09:39:28;99604.65;;;22.16;56.37
55022;BME280;68328;35.990;-86.756;2023-04-06T09:41:53;99610.62;;;21.82;55.36
55022;BME280;68328;35.990;-86.756;2023-04-06T09:44:18;99600.37;;;22.11;55.76
55022;BME280;68328;35.990;-86.756;2023-04-06T09:46:45;99575.14;;;21.89;56.52
55022;BME280;68328;35.990;-86.756;2023-04-06T09:49:09;99545.68;;;21.87;56.33
55022;BME280;68328;35.990;-86.756;2023-04-06T09:51:38;99545.70;;;21.67;56.96
55022;BME280;68328;35.990;-86.756;2023-04-06T09:53:59;99554.23;;;21.70;55.94
55022;BME280;68328;35.990;-86.756;2023-04-06T09:56:25;99554.59;;;21.79;56.69
55022;BME280;68328;35.990;-86.756;2023-04-06T09:58:50;99558.60;;;21.85;55.93
55022;BME280;68328;35.990;-86.756;2023-04-06T10:01:16;99565.56;;;21.69;55.81
55022;BME280;68328;35.990;-86.756;2023-04-06T10:03:48;99571.65;;;21.59;55.83
55022;BME280;68328;35.990;-86.756;2023-04-06T10:06:11;99592.41;;;21.55;55.69
55022;BME280;68328;35.990;-86.756;2023-04-06T10:08:34;99597.68;;;21.06;54.67
55022;BME280;68328;35.990;-86.756;2023-04-06T10:10:56;99582.58;;;20.41;55.22
55022;BME280;68328;35.990;-86.756;2023-04-06T10:13:21;99583.05;;;19.81;55.86
55022;BME280;68328;35.990;-86.756;2023-04-06T10:15:47;99602.67;;;19.51;54.64
55022;BME280;68328;35.990;-86.756;2023-04-06T10:18:12;99616.37;;;19.57;54.31
55022;BME280;68328;35.990;-86.756;2023-04-06T10:20:41;99610.04;;;19.53;54.30
55022;BME280;68328;35.990;-86.756;2023-04-06T10:23:09;99619.26;;;19.49;52.75
55022;BME280;68328;35.990;-86.756;2023-04-06T10:25:30;99614.58;;;19.76;53.92
55022;BME280;68328;35.990;-86.756;2023-04-06T10:27:59;99618.04;;;19.30;53.76
55022;BME280;68328;35.990;-86.756;2023-04-06T10:30:18;99633.91;;;19.23;54.21
55022;BME280;68328;35.990;-86.756;2023-04-06T10:32:44;99632.10;;;19.28;54.44
55022;BME280;68328;35.990;-86.756;2023-04-06T10:35:10;99627.78;;;19.19;55.52
55022;BME280;68328;35.990;-86.756;2023-04-06T10:37:49;99631.51;;;19.13;53.08
55022;BME280;68328;35.990;-86.756;2023-04-06T10:40:00;99638.68;;;19.21;52.10
55022;BME280;68328;35.990;-86.756;2023-04-06T10:42:25;99642.99;;;18.87;54.30
55022;BME280;68328;35.990;-86.756;2023-04-06T10:44:50;99636.19;;;18.50;53.18
55022;BME280;68328;35.990;-86.756;2023-04-06T10:47:17;99632.98;;;18.53;53.14
55022;BME280;68328;35.990;-86.756;2023-04-06T10:49:42;99641.45;;;18.79;54.59
55022;BME280;68328;35.990;-86.756;2023-04-06T10:52:06;99647.04;;;18.72;54.46
55022;BME280;68328;35.990;-86.756;2023-04-06T10:54:32;99651.96;;;18.67;54.57
55022;BME280;68328;35.990;-86.756;2023-04-06T10:56:57;99669.36;;;18.59;53.82
55022;BME280;68328;35.990;-86.756;2023-04-06T10:59:23;99682.48;;;18.24;54.64
55022;BME280;68328;35.990;-86.756;2023-04-06T11:01:48;99704.49;;;18.41;53.96
55022;BME280;68328;35.990;-86.756;2023-04-06T11:04:19;99699.82;;;18.27;55.11
55022;BME280;68328;35.990;-86.756;2023-04-06T11:06:39;99705.68;;;18.52;52.85
55022;BME280;68328;35.990;-86.756;2023-04-06T11:09:04;99728.47;;;18.59;53.35
55022;BME280;68328;35.990;-86.756;2023-04-06T11:11:29;99738.42;;;18.23;52.38
55022;BME280;68328;35.990;-86.756;2023-04-06T11:13:55;99762.41;;;18.17;53.37
55022;BME280;68328;35.990;-86.756;2023-04-06T11:16:22;99777.08;;;18.01;55.97
55022;BME280;68328;35.990;-86.756;2023-04-06T11:18:51;99767.46;;;18.13;53.01
55022;BME280;68328;35.990;-86.756;2023-04-06T11:21:10;99780.80;;;18.13;53.02
55022;BME280;68328;35.990;-86.756;2023-04-06T11:23:35;99790.37;;;17.52;54.16
55022;BME280;68328;35.990;-86.756;2023-04-06T11:26:01;99798.24;;;17.38;55.59
55022;BME280;68328;35.990;-86.756;2023-04-06T11:28:26;99815.70;;;16.60;54.97
55022;BME280;68328;35.990;-86.756;2023-04-06T11:30:51;99823.89;;;16.48;55.14
55022;BME280;68328;35.990;-86.756;2023-04-06T11:33:21;99821.16;;;16.52;57.92
55022;BME280;68328;35.990;-86.756;2023-04-06T11:35:42;99814.85;;;16.86;54.72
55022;BME280;68328;35.990;-86.756;2023-04-06T11:38:08;99805.44;;;16.77;55.77
55022;BME280;68328;35.990;-86.756;2023-04-06T11:40:33;99819.53;;;16.38;53.81
55022;BME280;68328;35.990;-86.756;2023-04-06T11:42:59;99828.79;;;16.48;52.58
55022;BME280;68328;35.990;-86.756;2023-04-06T11:45:24;99823.44;;;16.41;55.21
55022;BME280;68328;35.990;-86.756;2023-04-06T11:47:56;99813.78;;;16.82;57.29
55022;BME280;68328;35.990;-86.756;2023-04-06T11:50:14;99805.19;;;16.59;54.60
55022;BME280;68328;35.990;-86.756;2023-04-06T11:52:40;99808.39;;;16.31;55.22
55022;BME280;68328;35.990;-86.756;2023-04-06T11:55:11;99845.39;;;16.37;54.08
55022;BME280;68328;35.990;-86.756;2023-04-06T11:57:30;99866.46;;;16.20;55.09
55022;BME280;68328;35.990;-86.756;2023-04-06T11:59:55;99855.28;;;16.34;54.48
55022;BME280;68328;35.990;-86.756;2023-04-06T12:02:20;99852.98;;;16.24;54.11
55022;BME280;68328;35.990;-86.756;2023-04-06T12:04:46;99854.08;;;15.86;53.77
55022;BME280;68328;35.990;-86.756;2023-04-06T12:07:11;99844.84;;;16.06;54.69
55022;BME280;68328;35.990;-86.756;2023-04-06T12:09:36;99826.80;;;15.87;55.04
55022;BME280;68328;35.990;-86.756;2023-04-06T12:12:02;99825.97;;;15.88;53.92
55022;BME280;68328;35.990;-86.756;2023-04-06T12:14:27;99846.19;;;15.85;54.62
55022;BME280;68328;35.990;-86.756;2023-04-06T12:16:52;99868.02;;;16.04;55.31
55022;BME280;68328;35.990;-86.756;2023-04-06T12:19:18;99883.59;;;16.11;54.03
55022;BME280;68328;35.990;-86.756;2023-04-06T12:21:43;99893.78;;;16.43;53.40
55022;BME280;68328;35.990;-86.756;2023-04-06T12:24:08;99893.64;;;16.08;52.98
55022;BME280;68328;35.990;-86.756;2023-04-06T12:26:34;99885.01;;;15.14;52.33
55022;BME280;68328;35.990;-86.756;2023-04-06T12:28:59;99890.48;;;14.82;52.76